sensor_id;sensor_type;location;lat;lon;timestamp;P1;durP1;ratioP1;P2;durP2;ratioP2
2406;SDS011;37709;53.480;9.688;2022-12-18T00:02:05;10.90;;;7.47;;
2406;SDS011;37709;53.480;9.688;2022-12-18T00:04:32;10.47;;;8.63;;
2406;SDS011;37709;53.480;9.688;2022-12-18T00:07:00;16.00;;;8.43;;
2406;SDS011;37709;53.480;9.688;2022-12-18T00:09:28;14.80;;;8.87;;
2406;SDS011;37709;53.480;9.688;2022-12-18T00:12:05;11.37;;;8.83;;
2406;SDS011;37709;53.480;9.688;2022-12-18T00:14:41;14.73;;;8.53;;
2406;SDS011;37709;53.480;9.688;2022-12-18T00:17:09;12.03;;;7.97;;
2406;SDS011;37709;53.480;9.688;2022-12-18T00:19:37;13.13;;;8.40;;
2406;SDS011;37709;53.480;9.688;2022-12-18T00:22:04;9.40;;;8.03;;
2406;SDS011;37709;53.480;9.688;2022-12-18T00:24:33;11.30;;;7.93;;
2406;SDS011;37709;53.480;9.688;2022-12-18T00:27:00;10.40;;;8.37;;
2406;SDS011;37709;53.480;9.688;2022-12-18T00:29:28;10.80;;;9.00;;
2406;SDS011;37709;53.480;9.688;2022-12-18T00:31:56;10.67;;;8.00;;
2406;SDS011;37709;53.480;9.688;2022-12-18T00:34:23;9.47;;;7.87;;
2406;SDS011;37709;53.480;9.688;2022-12-18T00:36:51;12.83;;;8.30;;
2406;SDS011;37709;53.480;9.688;2022-12-18T00:39:21;12.90;;;8.83;;
2406;SDS011;37709;53.480;9.688;2022-12-18T00:41:49;10.90;;;8.40;;
2406;SDS011;37709;53.480;9.688;2022-12-18T00:44:36;9.70;;;8.37;;
2406;SDS011;37709;53.480;9.688;2022-12-18T00:47:03;11.80;;;8.40;;
2406;SDS011;37709;53.480;9.688;2022-12-18T00:49:31;11.93;;;7.93;;
2406;SDS011;37709;53.480;9.688;2022-12-18T00:51:58;16.53;;;8.83;;
2406;SDS011;37709;53.480;9.688;2022-12-18T00:54:26;13.30;;;8.93;;
2406;SDS011;37709;53.480;9.688;2022-12-18T00:56:54;10.47;;;7.97;;
2406;SDS011;37709;53.480;9.688;2022-12-18T00:59:21;12.37;;;9.00;;
2406;SDS011;37709;53.480;9.688;2022-12-18T01:01:50;13.67;;;8.93;;
2406;SDS011;37709;53.480;9.688;2022-12-18T01:04:19;10.13;;;8.30;;
2406;SDS011;37709;53.480;9.688;2022-12-18T01:06:47;12.20;;;8.20;;
2406;SDS011;37709;53.480;9.688;2022-12-18T01:09:16;11.30;;;8.40;;
2406;SDS011;37709;53.480;9.688;2022-12-18T01:11:44;12.27;;;9.20;;
2406;SDS011;37709;53.480;9.688;2022-12-18T01:14:11;11.23;;;8.30;;
2406;SDS011;37709;53.480;9.688;2022-12-18T01:16:39;9.33;;;7.77;;
2406;SDS011;37709;53.480;9.688;2022-12-18T01:19:07;8.97;;;7.17;;
2406;SDS011;37709;53.480;9.688;2022-12-18T01:21:35;9.87;;;7.27;;
2406;SDS011;37709;53.480;9.688;2022-12-18T01:24:03;13.43;;;9.17;;
2406;SDS011;37709;53.480;9.688;2022-12-18T01:26:31;9.20;;;5.87;;
2406;SDS011;37709;53.480;9.688;2022-12-18T01:28:59;13.00;;;8.83;;
2406;SDS011;37709;53.480;9.688;2022-12-18T01:31:28;16.33;;;9.53;;
2406;SDS011;37709;53.480;9.688;2022-12-18T01:33:56;11.70;;;8.47;;
2406;SDS011;37709;53.480;9.688;2022-12-18T01:36:25;11.20;;;8.50;;
2406;SDS011;37709;53.480;9.688;2022-12-18T01:38:54;11.80;;;8.70;;
2406;SDS011;37709;53.480;9.688;2022-12-18T01:41:24;10.90;;;9.47;;
2406;SDS011;37709;53.480;9.688;2022-12-18T01:43:55;13.90;;;9.27;;
2406;SDS011;37709;53.480;9.688;2022-12-18T01:46:24;13.40;;;9.53;;
2406;SDS011;37709;53.480;9.688;2022-12-18T01:48:56;13.53;;;7.97;;
2406;SDS011;37709;53.480;9.688;2022-12-18T01:51:26;14.27;;;9.00;;
2406;SDS011;37709;53.480;9.688;2022-12-18T01:53:54;13.20;;;9.43;;
2406;SDS011;37709;53.480;9.688;2022-12-18T01:56:23;14.73;;;10.57;;
2406;SDS011;37709;53.480;9.688;2022-12-18T01:59:01;10.77;;;9.00;;
2406;SDS011;37709;53.480;9.688;2022-12-18T02:01:30;11.80;;;8.00;;
2406;SDS011;37709;53.480;9.688;2022-12-18T02:04:20;10.50;;;7.27;;
2406;SDS011;37709;53.480;9.688;2022-12-18T02:06:55;21.33;;;9.27;;
2406;SDS011;37709;53.480;9.688;2022-12-18T02:09:31;10.50;;;7.60;;
2406;SDS011;37709;53.480;9.688;2022-12-18T02:14:49;14.93;;;8.47;;
2406;SDS011;37709;53.480;9.688;2022-12-18T02:17:22;10.90;;;8.43;;
2406;SDS011;37709;53.480;9.688;2022-12-18T02:19:54;11.93;;;8.60;;
2406;SDS011;37709;53.480;9.688;2022-12-18T02:25:29;10.93;;;9.23;;
2406;SDS011;37709;53.480;9.688;2022-12-18T02:27:53;10.93;;;7.87;;
2406;SDS011;37709;53.480;9.688;2022-12-18T02:30:23;10.47;;;7.50;;
2406;SDS011;37709;53.480;9.688;2022-12-18T02:32:52;14.40;;;9.30;;
2406;SDS011;37709;53.480;9.688;2022-12-18T02:35:22;9.90;;;8.90;;
2406;SDS011;37709;53.480;9.688;2022-12-18T02:37:53;11.60;;;7.97;;
2406;SDS011;37709;53.480;9.688;2022-12-18T02:40:22;9.70;;;7.30;;
2406;SDS011;37709;53.480;9.688;2022-12-18T02:42:51;12.60;;;8.70;;
2406;SDS011;37709;53.480;9.688;2022-12-18T02:45:19;16.10;;;8.63;;
2406;SDS011;37709;53.480;9.688;2022-12-18T02:47:48;12.57;;;9.47;;
2406;SDS011;37709;53.480;9.688;2022-12-18T02:50:29;12.83;;;8.63;;
2406;SDS011;37709;53.480;9.688;2022-12-18T02:53:06;12.17;;;9.00;;
2406;SDS011;37709;53.480;9.688;2022-12-18T03:03:59;14.03;;;8.90;;
2406;SDS011;37709;53.480;9.688;2022-12-18T03:06:29;11.47;;;8.97;;
2406;SDS011;37709;53.480;9.688;2022-12-18T03:08:59;11.07;;;8.00;;
2406;SDS011;37709;53.480;9.688;2022-12-18T03:11:29;10.63;;;7.70;;
2406;SDS011;37709;53.480;9.688;2022-12-18T03:14:18;15.90;;;9.10;;
2406;SDS011;37709;53.480;9.688;2022-12-18T03:16:49;9.33;;;8.30;;
2406;SDS011;37709;53.480;9.688;2022-12-18T03:19:20;9.63;;;7.70;;
2406;SDS011;37709;53.480;9.688;2022-12-18T03:21:51;9.67;;;7.60;;
2406;SDS011;37709;53.480;9.688;2022-12-18T03:24:23;10.37;;;7.77;;
2406;SDS011;37709;53.480;9.688;2022-12-18T03:26:52;10.53;;;6.87;;
2406;SDS011;37709;53.480;9.688;2022-12-18T03:29:26;13.07;;;8.50;;
2406;SDS011;37709;53.480;9.688;2022-12-18T03:32:18;11.70;;;8.17;;
2406;SDS011;37709;53.480;9.688;2022-12-18T03:34:47;11.03;;;8.13;;
2406;SDS011;37709;53.480;9.688;2022-12-18T03:37:18;12.10;;;8.07;;
2406;SDS011;37709;53.480;9.688;2022-12-18T03:39:46;12.00;;;6.97;;
2406;SDS011;37709;53.480;9.688;2022-12-18T03:42:17;12.00;;;8.37;;
2406;SDS011;37709;53.480;9.688;2022-12-18T03:47:31;10.17;;;7.70;;
2406;SDS011;37709;53.480;9.688;2022-12-18T03:51:05;15.50;;;7.83;;
2406;SDS011;37709;53.480;9.688;2022-12-18T03:53:11;10.33;;;7.30;;
2406;SDS011;37709;53.480;9.688;2022-12-18T03:55:43;10.40;;;8.30;;
2406;SDS011;37709;53.480;9.688;2022-12-18T03:58:13;11.93;;;7.77;;
2406;SDS011;37709;53.480;9.688;2022-12-18T04:00:53;11.90;;;10.27;;
2406;SDS011;37709;53.480;9.688;2022-12-18T04:03:23;10.43;;;7.80;;
2406;SDS011;37709;53.480;9.688;2022-12-18T04:05:52;18.93;;;9.57;;
2406;SDS011;37709;53.480;9.688;2022-12-18T04:08:22;8.90;;;6.90;;
2406;SDS011;37709;53.480;9.688;2022-12-18T04:10:59;10.27;;;7.57;;
2406;SDS011;37709;53.480;9.688;2022-12-18T04:13:27;11.43;;;8.30;;
2406;SDS011;37709;53.480;9.688;2022-12-18T04:15:58;10.50;;;7.90;;
2406;SDS011;37709;53.480;9.688;2022-12-18T04:18:27;11.90;;;8.20;;
2406;SDS011;37709;53.480;9.688;2022-12-18T04:20:55;9.97;;;7.33;;
2406;SDS011;37709;53.480;9.688;2022-12-18T04:23:22;13.40;;;7.53;;
2406;SDS011;37709;53.480;9.688;2022-12-18T04:25:52;12.00;;;8.70;;
2406;SDS011;37709;53.480;9.688;2022-12-18T04:28:33;10.30;;;7.40;;
2406;SDS011;37709;53.480;9.688;2022-12-18T04:31:02;12.27;;;7.93;;
2406;SDS011;37709;53.480;9.688;2022-12-18T04:33:29;11.80;;;7.87;;
2406;SDS011;37709;53.480;9.688;2022-12-18T04:35:57;9.07;;;7.40;;
2406;SDS011;37709;53.480;9.688;2022-12-18T04:38:26;9.37;;;6.20;;
2406;SDS011;37709;53.480;9.688;2022-12-18T04:41:01;8.03;;;6.60;;
2406;SDS011;37709;53.480;9.688;2022-12-18T04:43:32;13.53;;;7.83;;
2406;SDS011;37709;53.480;9.688;2022-12-18T04:46:03;9.03;;;6.97;;
2406;SDS011;37709;53.480;9.688;2022-12-18T04:48:31;13.90;;;8.00;;
2406;SDS011;37709;53.480;9.688;2022-12-18T04:51:00;12.20;;;7.83;;
2406;SDS011;37709;53.480;9.688;2022-12-18T04:53:28;10.63;;;8.60;;
2406;SDS011;37709;53.480;9.688;2022-12-18T04:56:03;10.33;;;7.40;;
2406;SDS011;37709;53.480;9.688;2022-12-18T04:58:31;9.13;;;7.90;;
2406;SDS011;37709;53.480;9.688;2022-12-18T05:00:58;12.73;;;8.33;;
2406;SDS011;37709;53.480;9.688;2022-12-18T05:03:26;11.33;;;6.73;;
2406;SDS011;37709;53.480;9.688;2022-12-18T05:05:54;9.53;;;6.83;;
2406;SDS011;37709;53.480;9.688;2022-12-18T05:08:22;10.50;;;7.60;;
2406;SDS011;37709;53.480;9.688;2022-12-18T05:10:49;9.50;;;7.30;;
2406;SDS011;37709;53.480;9.688;2022-12-18T05:13:17;11.97;;;8.50;;
2406;SDS011;37709;53.480;9.688;2022-12-18T05:15:50;13.00;;;7.43;;
2406;SDS011;37709;53.480;9.688;2022-12-18T05:18:18;10.63;;;7.90;;
2406;SDS011;37709;53.480;9.688;2022-12-18T05:20:46;12.70;;;7.80;;
2406;SDS011;37709;53.480;9.688;2022-12-18T05:23:14;9.27;;;7.57;;
2406;SDS011;37709;53.480;9.688;2022-12-18T05:25:42;13.03;;;8.40;;
2406;SDS011;37709;53.480;9.688;2022-12-18T05:28:10;9.47;;;7.40;;
2406;SDS011;37709;53.480;9.688;2022-12-18T05:30:38;8.13;;;5.80;;
2406;SDS011;37709;53.480;9.688;2022-12-18T05:33:08;10.27;;;7.60;;
2406;SDS011;37709;53.480;9.688;2022-12-18T05:35:36;16.67;;;7.70;;
2406;SDS011;37709;53.480;9.688;2022-12-18T05:38:03;9.83;;;7.60;;
2406;SDS011;37709;53.480;9.688;2022-12-18T05:40:31;10.67;;;7.07;;
2406;SDS011;37709;53.480;9.688;2022-12-18T05:42:59;9.37;;;7.33;;
2406;SDS011;37709;53.480;9.688;2022-12-18T05:45:26;10.20;;;6.33;;
2406;SDS011;37709;53.480;9.688;2022-12-18T05:47:54;9.50;;;7.67;;
2406;SDS011;37709;53.480;9.688;2022-12-18T05:50:22;8.27;;;6.97;;
2406;SDS011;37709;53.480;9.688;2022-12-18T05:52:51;11.03;;;8.10;;
2406;SDS011;37709;53.480;9.688;2022-12-18T05:55:19;12.47;;;8.73;;
2406;SDS011;37709;53.480;9.688;2022-12-18T05:57:46;10.70;;;7.97;;
2406;SDS011;37709;53.480;9.688;2022-12-18T06:00:14;13.07;;;8.00;;
2406;SDS011;37709;53.480;9.688;2022-12-18T06:02:45;11.50;;;7.20;;
2406;SDS011;37709;53.480;9.688;2022-12-18T06:05:13;9.43;;;7.50;;
2406;SDS011;37709;53.480;9.688;2022-12-18T06:07:41;12.33;;;8.20;;
2406;SDS011;37709;53.480;9.688;2022-12-18T06:10:09;9.27;;;6.10;;
2406;SDS011;37709;53.480;9.688;2022-12-18T06:12:37;11.27;;;7.33;;
2406;SDS011;37709;53.480;9.688;2022-12-18T06:15:06;10.97;;;7.40;;
2406;SDS011;37709;53.480;9.688;2022-12-18T06:17:33;10.80;;;7.20;;
2406;SDS011;37709;53.480;9.688;2022-12-18T06:20:02;12.40;;;7.57;;
2406;SDS011;37709;53.480;9.688;2022-12-18T06:22:30;13.73;;;8.13;;
2406;SDS011;37709;53.480;9.688;2022-12-18T06:24:58;12.20;;;7.40;;
2406;SDS011;37709;53.480;9.688;2022-12-18T06:27:26;10.77;;;7.53;;
2406;SDS011;37709;53.480;9.688;2022-12-18T06:29:53;12.20;;;7.67;;
2406;SDS011;37709;53.480;9.688;2022-12-18T06:32:21;11.40;;;7.37;;
2406;SDS011;37709;53.480;9.688;2022-12-18T06:34:49;8.97;;;6.97;;
2406;SDS011;37709;53.480;9.688;2022-12-18T06:37:17;8.90;;;7.80;;
2406;SDS011;37709;53.480;9.688;2022-12-18T06:39:44;13.70;;;7.30;;
2406;SDS011;37709;53.480;9.688;2022-12-18T06:42:12;10.47;;;6.83;;
2406;SDS011;37709;53.480;9.688;2022-12-18T06:44:40;9.10;;;6.50;;
2406;SDS011;37709;53.480;9.688;2022-12-18T06:47:07;11.97;;;7.77;;
2406;SDS011;37709;53.480;9.688;2022-12-18T06:49:35;10.73;;;6.33;;
2406;SDS011;37709;53.480;9.688;2022-12-18T06:52:02;12.47;;;7.03;;
2406;SDS011;37709;53.480;9.688;2022-12-18T06:54:30;12.60;;;7.93;;
2406;SDS011;37709;53.480;9.688;2022-12-18T06:56:58;9.73;;;7.40;;
2406;SDS011;37709;53.480;9.688;2022-12-18T06:59:25;10.33;;;6.07;;
2406;SDS011;37709;53.480;9.688;2022-12-18T07:01:53;11.40;;;7.27;;
2406;SDS011;37709;53.480;9.688;2022-12-18T07:04:22;9.90;;;7.40;;
2406;SDS011;37709;53.480;9.688;2022-12-18T07:06:54;11.20;;;8.10;;
2406;SDS011;37709;53.480;9.688;2022-12-18T07:09:22;9.43;;;6.40;;
2406;SDS011;37709;53.480;9.688;2022-12-18T07:11:50;11.80;;;7.63;;
2406;SDS011;37709;53.480;9.688;2022-12-18T07:14:18;12.13;;;7.43;;
2406;SDS011;37709;53.480;9.688;2022-12-18T07:16:45;12.20;;;7.30;;
2406;SDS011;37709;53.480;9.688;2022-12-18T07:19:13;8.93;;;6.77;;
2406;SDS011;37709;53.480;9.688;2022-12-18T07:21:41;7.43;;;6.50;;
2406;SDS011;37709;53.480;9.688;2022-12-18T07:24:09;10.00;;;6.10;;
2406;SDS011;37709;53.480;9.688;2022-12-18T07:26:37;7.53;;;6.73;;
2406;SDS011;37709;53.480;9.688;2022-12-18T07:29:05;12.10;;;7.30;;
2406;SDS011;37709;53.480;9.688;2022-12-18T07:31:33;9.50;;;8.00;;
2406;SDS011;37709;53.480;9.688;2022-12-18T07:34:01;9.37;;;6.80;;
2406;SDS011;37709;53.480;9.688;2022-12-18T07:36:28;10.27;;;6.83;;
2406;SDS011;37709;53.480;9.688;2022-12-18T07:38:56;10.60;;;6.80;;
2406;SDS011;37709;53.480;9.688;2022-12-18T07:41:23;7.17;;;6.33;;
2406;SDS011;37709;53.480;9.688;2022-12-18T07:43:51;11.17;;;6.97;;
2406;SDS011;37709;53.480;9.688;2022-12-18T07:46:19;9.10;;;6.47;;
2406;SDS011;37709;53.480;9.688;2022-12-18T07:48:46;6.00;;;4.60;;
2406;SDS011;37709;53.480;9.688;2022-12-18T07:51:16;8.57;;;6.93;;
2406;SDS011;37709;53.480;9.688;2022-12-18T07:53:44;8.50;;;7.30;;
2406;SDS011;37709;53.480;9.688;2022-12-18T07:56:16;7.57;;;6.00;;
2406;SDS011;37709;53.480;9.688;2022-12-18T07:58:54;8.93;;;6.57;;
2406;SDS011;37709;53.480;9.688;2022-12-18T08:01:22;8.70;;;7.40;;
2406;SDS011;37709;53.480;9.688;2022-12-18T08:03:50;11.97;;;8.27;;
2406;SDS011;37709;53.480;9.688;2022-12-18T08:06:18;10.00;;;5.40;;
2406;SDS011;37709;53.480;9.688;2022-12-18T08:08:53;10.30;;;7.50;;
2406;SDS011;37709;53.480;9.688;2022-12-18T08:11:22;12.10;;;7.73;;
2406;SDS011;37709;53.480;9.688;2022-12-18T08:13:50;8.50;;;6.53;;
2406;SDS011;37709;53.480;9.688;2022-12-18T08:16:18;10.37;;;6.83;;
2406;SDS011;37709;53.480;9.688;2022-12-18T08:18:46;9.67;;;5.70;;
2406;SDS011;37709;53.480;9.688;2022-12-18T08:21:19;7.80;;;6.73;;
2406;SDS011;37709;53.480;9.688;2022-12-18T08:23:49;10.53;;;8.00;;
2406;SDS011;37709;53.480;9.688;2022-12-18T08:26:18;10.33;;;6.90;;
2406;SDS011;37709;53.480;9.688;2022-12-18T08:28:47;9.27;;;6.47;;
2406;SDS011;37709;53.480;9.688;2022-12-18T08:31:16;8.83;;;5.80;;
2406;SDS011;37709;53.480;9.688;2022-12-18T08:33:44;7.67;;;5.37;;
2406;SDS011;37709;53.480;9.688;2022-12-18T08:36:12;8.90;;;6.30;;
2406;SDS011;37709;53.480;9.688;2022-12-18T08:38:40;8.40;;;6.23;;
2406;SDS011;37709;53.480;9.688;2022-12-18T08:41:11;9.27;;;7.37;;
2406;SDS011;37709;53.480;9.688;2022-12-18T08:43:39;10.47;;;6.30;;
2406;SDS011;37709;53.480;9.688;2022-12-18T08:46:30;6.30;;;5.00;;
2406;SDS011;37709;53.480;9.688;2022-12-18T08:48:59;7.60;;;5.70;;
2406;SDS011;37709;53.480;9.688;2022-12-18T08:51:26;7.70;;;5.80;;
2406;SDS011;37709;53.480;9.688;2022-12-18T08:53:54;8.47;;;7.00;;
2406;SDS011;37709;53.480;9.688;2022-12-18T08:56:24;7.93;;;5.27;;
2406;SDS011;37709;53.480;9.688;2022-12-18T08:58:54;10.10;;;6.73;;
2406;SDS011;37709;53.480;9.688;2022-12-18T09:01:23;10.47;;;6.70;;
2406;SDS011;37709;53.480;9.688;2022-12-18T09:03:58;8.70;;;6.60;;
2406;SDS011;37709;53.480;9.688;2022-12-18T09:06:26;8.97;;;6.77;;
2406;SDS011;37709;53.480;9.688;2022-12-18T09:08:56;5.97;;;4.67;;
2406;SDS011;37709;53.480;9.688;2022-12-18T09:11:31;8.37;;;6.73;;
2406;SDS011;37709;53.480;9.688;2022-12-18T09:14:05;7.50;;;5.23;;
2406;SDS011;37709;53.480;9.688;2022-12-18T09:16:36;9.70;;;7.13;;
2406;SDS011;37709;53.480;9.688;2022-12-18T09:19:10;8.97;;;7.63;;
2406;SDS011;37709;53.480;9.688;2022-12-18T09:21:39;11.20;;;7.60;;
2406;SDS011;37709;53.480;9.688;2022-12-18T09:24:14;6.50;;;4.87;;
2406;SDS011;37709;53.480;9.688;2022-12-18T09:26:45;6.60;;;4.97;;
2406;SDS011;37709;53.480;9.688;2022-12-18T09:29:23;9.10;;;6.37;;
2406;SDS011;37709;53.480;9.688;2022-12-18T09:31:53;9.47;;;7.00;;
2406;SDS011;37709;53.480;9.688;2022-12-18T09:34:24;8.20;;;6.03;;
2406;SDS011;37709;53.480;9.688;2022-12-18T09:36:54;10.23;;;6.50;;
2406;SDS011;37709;53.480;9.688;2022-12-18T09:39:22;7.37;;;6.63;;
2406;SDS011;37709;53.480;9.688;2022-12-18T09:41:54;7.57;;;5.53;;
2406;SDS011;37709;53.480;9.688;2022-12-18T09:44:29;7.97;;;6.03;;
2406;SDS011;37709;53.480;9.688;2022-12-18T09:47:06;7.80;;;6.43;;
2406;SDS011;37709;53.480;9.688;2022-12-18T09:49:40;10.90;;;4.43;;
2406;SDS011;37709;53.480;9.688;2022-12-18T09:52:12;10.10;;;6.97;;
2406;SDS011;37709;53.480;9.688;2022-12-18T09:54:48;8.67;;;6.40;;
2406;SDS011;37709;53.480;9.688;2022-12-18T09:57:21;8.77;;;6.77;;
2406;SDS011;37709;53.480;9.688;2022-12-18T09:59:55;8.47;;;7.50;;
2406;SDS011;37709;53.480;9.688;2022-12-18T10:02:26;5.20;;;4.30;;
2406;SDS011;37709;53.480;9.688;2022-12-18T10:05:04;7.67;;;6.87;;
2406;SDS011;37709;53.480;9.688;2022-12-18T10:07:52;8.67;;;6.47;;
2406;SDS011;37709;53.480;9.688;2022-12-18T10:11:00;7.07;;;5.30;;
2406;SDS011;37709;53.480;9.688;2022-12-18T10:13:32;8.40;;;5.77;;
2406;SDS011;37709;53.480;9.688;2022-12-18T10:16:09;9.70;;;6.80;;
2406;SDS011;37709;53.480;9.688;2022-12-18T10:21:12;7.67;;;5.10;;
2406;SDS011;37709;53.480;9.688;2022-12-18T10:26:14;8.00;;;5.83;;
2406;SDS011;37709;53.480;9.688;2022-12-18T10:28:42;9.10;;;6.10;;
2406;SDS011;37709;53.480;9.688;2022-12-18T10:31:15;6.70;;;5.80;;
2406;SDS011;37709;53.480;9.688;2022-12-18T10:33:44;8.60;;;5.57;;
2406;SDS011;37709;53.480;9.688;2022-12-18T10:36:12;7.03;;;5.17;;
2406;SDS011;37709;53.480;9.688;2022-12-18T10:38:42;5.77;;;4.03;;
2406;SDS011;37709;53.480;9.688;2022-12-18T10:44:10;6.57;;;5.50;;
2406;SDS011;37709;53.480;9.688;2022-12-18T10:46:43;6.10;;;5.43;;
2406;SDS011;37709;53.480;9.688;2022-12-18T10:49:27;6.60;;;4.60;;
2406;SDS011;37709;53.480;9.688;2022-12-18T10:52:07;6.83;;;4.50;;
2406;SDS011;37709;53.480;9.688;2022-12-18T10:54:45;8.83;;;5.60;;
2406;SDS011;37709;53.480;9.688;2022-12-18T10:57:33;7.63;;;4.90;;
2406;SDS011;37709;53.480;9.688;2022-12-18T11:02:55;7.07;;;5.23;;
2406;SDS011;37709;53.480;9.688;2022-12-18T11:05:32;9.27;;;4.83;;
2406;SDS011;37709;53.480;9.688;2022-12-18T11:08:02;4.30;;;3.77;;
2406;SDS011;37709;53.480;9.688;2022-12-18T11:10:35;5.70;;;4.93;;
2406;SDS011;37709;53.480;9.688;2022-12-18T11:13:20;5.90;;;4.50;;
2406;SDS011;37709;53.480;9.688;2022-12-18T11:15:48;8.13;;;4.93;;
2406;SDS011;37709;53.480;9.688;2022-12-18T11:18:22;5.30;;;4.80;;
2406;SDS011;37709;53.480;9.688;2022-12-18T11:21:09;6.80;;;6.03;;
2406;SDS011;37709;53.480;9.688;2022-12-18T11:23:51;8.30;;;4.80;;
2406;SDS011;37709;53.480;9.688;2022-12-18T11:26:21;5.13;;;4.60;;
2406;SDS011;37709;53.480;9.688;2022-12-18T11:29:10;5.90;;;5.30;;
2406;SDS011;37709;53.480;9.688;2022-12-18T11:31:49;7.57;;;4.80;;
2406;SDS011;37709;53.480;9.688;2022-12-18T11:34:21;6.33;;;4.70;;
2406;SDS011;37709;53.480;9.688;2022-12-18T11:36:58;6.53;;;4.30;;
2406;SDS011;37709;53.480;9.688;2022-12-18T11:39:31;6.83;;;5.40;;
2406;SDS011;37709;53.480;9.688;2022-12-18T11:53:04;4.47;;;3.80;;
2406;SDS011;37709;53.480;9.688;2022-12-18T11:55:37;7.90;;;4.47;;
2406;SDS011;37709;53.480;9.688;2022-12-18T12:01:13;4.90;;;4.40;;
2406;SDS011;37709;53.480;9.688;2022-12-18T12:04:01;5.90;;;4.60;;
2406;SDS011;37709;53.480;9.688;2022-12-18T12:12:09;4.83;;;3.77;;
2406;SDS011;37709;53.480;9.688;2022-12-18T12:15:02;8.00;;;4.50;;
2406;SDS011;37709;53.480;9.688;2022-12-18T12:20:52;5.77;;;4.50;;
2406;SDS011;37709;53.480;9.688;2022-12-18T12:32:07;4.80;;;3.57;;
2406;SDS011;37709;53.480;9.688;2022-12-18T12:37:49;3.90;;;3.27;;
2406;SDS011;37709;53.480;9.688;2022-12-18T12:40:37;4.60;;;3.80;;
2406;SDS011;37709;53.480;9.688;2022-12-18T12:46:07;5.73;;;4.40;;
2406;SDS011;37709;53.480;9.688;2022-12-18T12:51:21;6.13;;;3.80;;
2406;SDS011;37709;53.480;9.688;2022-12-18T12:53:56;4.00;;;3.60;;
2406;SDS011;37709;53.480;9.688;2022-12-18T12:56:26;5.63;;;4.00;;
2406;SDS011;37709;53.480;9.688;2022-12-18T12:59:18;5.53;;;3.80;;
2406;SDS011;37709;53.480;9.688;2022-12-18T13:02:05;6.50;;;3.67;;
2406;SDS011;37709;53.480;9.688;2022-12-18T13:05:07;3.60;;;2.90;;
2406;SDS011;37709;53.480;9.688;2022-12-18T13:07:48;6.40;;;4.03;;
2406;SDS011;37709;53.480;9.688;2022-12-18T13:10:40;3.80;;;2.97;;
2406;SDS011;37709;53.480;9.688;2022-12-18T13:13:10;4.90;;;3.10;;
2406;SDS011;37709;53.480;9.688;2022-12-18T13:16:02;3.40;;;2.77;;
2406;SDS011;37709;53.480;9.688;2022-12-18T13:18:34;4.30;;;3.07;;
2406;SDS011;37709;53.480;9.688;2022-12-18T13:21:12;4.90;;;3.37;;
2406;SDS011;37709;53.480;9.688;2022-12-18T13:26:55;4.43;;;3.40;;
2406;SDS011;37709;53.480;9.688;2022-12-18T13:29:41;4.20;;;3.37;;
2406;SDS011;37709;53.480;9.688;2022-12-18T13:32:19;5.43;;;3.00;;
2406;SDS011;37709;53.480;9.688;2022-12-18T13:37:52;3.80;;;2.83;;
2406;SDS011;37709;53.480;9.688;2022-12-18T13:48:29;5.67;;;3.10;;
2406;SDS011;37709;53.480;9.688;2022-12-18T13:51:13;6.07;;;2.97;;
2406;SDS011;37709;53.480;9.688;2022-12-18T13:53:47;3.60;;;2.53;;
2406;SDS011;37709;53.480;9.688;2022-12-18T13:56:23;5.00;;;3.30;;
2406;SDS011;37709;53.480;9.688;2022-12-18T13:59:15;3.70;;;2.80;;
2406;SDS011;37709;53.480;9.688;2022-12-18T14:01:52;4.33;;;3.40;;
2406;SDS011;37709;53.480;9.688;2022-12-18T14:04:24;3.30;;;2.90;;
2406;SDS011;37709;53.480;9.688;2022-12-18T14:07:00;5.23;;;3.23;;
2406;SDS011;37709;53.480;9.688;2022-12-18T14:09:39;4.40;;;2.93;;
2406;SDS011;37709;53.480;9.688;2022-12-18T14:12:15;3.33;;;2.80;;
2406;SDS011;37709;53.480;9.688;2022-12-18T14:18:18;4.70;;;3.17;;
2406;SDS011;37709;53.480;9.688;2022-12-18T14:20:51;4.20;;;3.70;;
2406;SDS011;37709;53.480;9.688;2022-12-18T14:23:32;5.37;;;3.30;;
2406;SDS011;37709;53.480;9.688;2022-12-18T14:26:22;4.53;;;3.47;;
2406;SDS011;37709;53.480;9.688;2022-12-18T14:28:56;5.37;;;4.07;;
2406;SDS011;37709;53.480;9.688;2022-12-18T14:31:25;6.00;;;4.47;;
2406;SDS011;37709;53.480;9.688;2022-12-18T14:33:55;5.77;;;4.40;;
2406;SDS011;37709;53.480;9.688;2022-12-18T14:36:27;5.20;;;4.50;;
2406;SDS011;37709;53.480;9.688;2022-12-18T14:38:58;9.63;;;4.87;;
2406;SDS011;37709;53.480;9.688;2022-12-18T14:41:26;7.57;;;5.37;;
2406;SDS011;37709;53.480;9.688;2022-12-18T14:43:56;5.50;;;4.50;;
2406;SDS011;37709;53.480;9.688;2022-12-18T14:46:35;13.47;;;5.70;;
2406;SDS011;37709;53.480;9.688;2022-12-18T14:49:14;7.03;;;4.90;;
2406;SDS011;37709;53.480;9.688;2022-12-18T14:51:54;7.27;;;5.50;;
2406;SDS011;37709;53.480;9.688;2022-12-18T14:54:27;9.20;;;5.87;;
2406;SDS011;37709;53.480;9.688;2022-12-18T14:57:05;7.97;;;6.03;;
2406;SDS011;37709;53.480;9.688;2022-12-18T14:59:44;9.23;;;6.23;;
2406;SDS011;37709;53.480;9.688;2022-12-18T15:07:48;9.20;;;7.13;;
2406;SDS011;37709;53.480;9.688;2022-12-18T15:18:10;9.27;;;7.20;;
2406;SDS011;37709;53.480;9.688;2022-12-18T15:23:17;9.70;;;6.33;;
2406;SDS011;37709;53.480;9.688;2022-12-18T15:26:05;12.03;;;7.47;;
2406;SDS011;37709;53.480;9.688;2022-12-18T15:28:37;10.10;;;7.30;;
2406;SDS011;37709;53.480;9.688;2022-12-18T15:31:20;9.87;;;7.27;;
2406;SDS011;37709;53.480;9.688;2022-12-18T15:36:25;10.60;;;7.90;;
2406;SDS011;37709;53.480;9.688;2022-12-18T15:39:02;14.60;;;9.23;;
2406;SDS011;37709;53.480;9.688;2022-12-18T15:41:33;13.57;;;8.23;;
2406;SDS011;37709;53.480;9.688;2022-12-18T15:44:02;11.10;;;7.50;;
2406;SDS011;37709;53.480;9.688;2022-12-18T15:46:44;11.63;;;8.77;;
2406;SDS011;37709;53.480;9.688;2022-12-18T15:49:11;12.13;;;8.90;;
2406;SDS011;37709;53.480;9.688;2022-12-18T15:51:39;11.90;;;8.00;;
2406;SDS011;37709;53.480;9.688;2022-12-18T15:54:09;13.40;;;9.10;;
2406;SDS011;37709;53.480;9.688;2022-12-18T15:56:39;15.90;;;9.70;;
2406;SDS011;37709;53.480;9.688;2022-12-18T15:59:25;11.97;;;8.70;;
2406;SDS011;37709;53.480;9.688;2022-12-18T16:01:53;16.20;;;10.13;;
2406;SDS011;37709;53.480;9.688;2022-12-18T16:04:21;14.83;;;9.70;;
2406;SDS011;37709;53.480;9.688;2022-12-18T16:06:50;14.37;;;9.20;;
2406;SDS011;37709;53.480;9.688;2022-12-18T16:09:38;14.57;;;9.60;;
2406;SDS011;37709;53.480;9.688;2022-12-18T16:12:06;15.47;;;9.27;;
2406;SDS011;37709;53.480;9.688;2022-12-18T16:14:43;14.17;;;9.40;;
2406;SDS011;37709;53.480;9.688;2022-12-18T16:17:11;15.23;;;10.87;;
2406;SDS011;37709;53.480;9.688;2022-12-18T16:19:40;14.30;;;8.90;;
2406;SDS011;37709;53.480;9.688;2022-12-18T16:22:10;13.97;;;10.30;;
2406;SDS011;37709;53.480;9.688;2022-12-18T16:24:47;17.07;;;11.70;;
2406;SDS011;37709;53.480;9.688;2022-12-18T16:27:14;17.53;;;10.80;;
2406;SDS011;37709;53.480;9.688;2022-12-18T16:29:41;16.43;;;10.73;;
2406;SDS011;37709;53.480;9.688;2022-12-18T16:32:13;15.57;;;11.27;;
2406;SDS011;37709;53.480;9.688;2022-12-18T16:34:42;17.87;;;11.63;;
2406;SDS011;37709;53.480;9.688;2022-12-18T16:37:11;15.23;;;9.47;;
2406;SDS011;37709;53.480;9.688;2022-12-18T16:39:40;13.63;;;9.70;;
2406;SDS011;37709;53.480;9.688;2022-12-18T16:42:15;16.00;;;11.43;;
2406;SDS011;37709;53.480;9.688;2022-12-18T16:44:46;17.37;;;11.57;;
2406;SDS011;37709;53.480;9.688;2022-12-18T16:47:14;16.03;;;10.80;;
2406;SDS011;37709;53.480;9.688;2022-12-18T16:49:42;17.50;;;11.47;;
2406;SDS011;37709;53.480;9.688;2022-12-18T16:52:12;16.50;;;11.43;;
2406;SDS011;37709;53.480;9.688;2022-12-18T16:54:39;17.80;;;12.23;;
2406;SDS011;37709;53.480;9.688;2022-12-18T16:57:08;19.17;;;11.50;;
2406;SDS011;37709;53.480;9.688;2022-12-18T16:59:38;18.70;;;12.23;;
2406;SDS011;37709;53.480;9.688;2022-12-18T17:02:08;20.90;;;11.77;;
2406;SDS011;37709;53.480;9.688;2022-12-18T17:04:41;16.40;;;11.07;;
2406;SDS011;37709;53.480;9.688;2022-12-18T17:07:09;15.43;;;10.43;;